sensor_id;sensor_type;location;lat;lon;timestamp;temperature;humidity
4725;DHT22;2376;53.544;10.226;2024-01-30T00:02:25;4.80;99.90
4725;DHT22;2376;53.544;10.226;2024-01-30T00:04:52;4.80;99.90
4725;DHT22;2376;53.544;10.226;2024-01-30T00:07:19;4.80;99.90
4725;DHT22;2376;53.544;10.226;2024-01-30T00:09:46;4.80;99.90
4725;DHT22;2376;53.544;10.226;2024-01-30T00:12:13;4.80;99.90
4725;DHT22;2376;53.544;10.226;2024-01-30T00:14:41;4.80;99.90
4725;DHT22;2376;53.544;10.226;2024-01-30T00:17:08;4.80;99.90
4725;DHT22;2376;53.544;10.226;2024-01-30T00:19:36;4.80;99.90
4725;DHT22;2376;53.544;10.226;2024-01-30T00:22:03;4.80;99.90
4725;DHT22;2376;53.544;10.226;2024-01-30T00:24:30;4.70;99.90
4725;DHT22;2376;53.544;10.226;2024-01-30T00:26:56;4.70;99.90
4725;DHT22;2376;53.544;10.226;2024-01-30T00:29:23;4.70;99.90
4725;DHT22;2376;53.544;10.226;2024-01-30T00:31:51;4.70;99.90
4725;DHT22;2376;53.544;10.226;2024-01-30T00:34:18;4.70;99.90
4725;DHT22;2376;53.544;10.226;2024-01-30T00:36:46;4.60;99.90
4725;DHT22;2376;53.544;10.226;2024-01-30T00:39:13;4.60;99.90
4725;DHT22;2376;53.544;10.226;2024-01-30T00:41:41;4.60;99.90
4725;DHT22;2376;53.544;10.226;2024-01-30T00:44:08;4.50;99.90
4725;DHT22;2376;53.544;10.226;2024-01-30T00:46:35;4.40;99.90
4725;DHT22;2376;53.544;10.226;2024-01-30T00:49:02;4.50;99.90
4725;DHT22;2376;53.544;10.226;2024-01-30T00:51:29;4.40;99.90
4725;DHT22;2376;53.544;10.226;2024-01-30T00:53:57;4.40;99.90
4725;DHT22;2376;53.544;10.226;2024-01-30T00:56:24;4.40;99.90
4725;DHT22;2376;53.544;10.226;2024-01-30T00:58:51;4.40;99.90
4725;DHT22;2376;53.544;10.226;2024-01-30T01:01:18;4.40;99.90
4725;DHT22;2376;53.544;10.226;2024-01-30T01:03:45;4.40;99.90
4725;DHT22;2376;53.544;10.226;2024-01-30T01:06:12;4.40;99.90
4725;DHT22;2376;53.544;10.226;2024-01-30T01:08:39;4.40;99.90
4725;DHT22;2376;53.544;10.226;2024-01-30T01:11:07;4.40;99.90
4725;DHT22;2376;53.544;10.226;2024-01-30T01:13:34;4.40;99.90
4725;DHT22;2376;53.544;10.226;2024-01-30T01:16:00;4.40;99.90
4725;DHT22;2376;53.544;10.226;2024-01-30T01:18:27;4.30;99.90
4725;DHT22;2376;53.544;10.226;2024-01-30T01:20:54;4.30;99.90
4725;DHT22;2376;53.544;10.226;2024-01-30T01:23:21;4.30;99.90
4725;DHT22;2376;53.544;10.226;2024-01-30T01:25:48;4.30;99.90
4725;DHT22;2376;53.544;10.226;2024-01-30T01:28:16;4.20;99.90
4725;DHT22;2376;53.544;10.226;2024-01-30T01:30:44;4.20;99.90
4725;DHT22;2376;53.544;10.226;2024-01-30T01:33:10;4.30;99.90
4725;DHT22;2376;53.544;10.226;2024-01-30T01:35:39;4.30;99.90
4725;DHT22;2376;53.544;10.226;2024-01-30T01:38:06;4.30;99.90
4725;DHT22;2376;53.544;10.226;2024-01-30T01:40:33;4.30;99.90
4725;DHT22;2376;53.544;10.226;2024-01-30T01:43:03;4.30;99.90
4725;DHT22;2376;53.544;10.226;2024-01-30T01:45:31;4.30;99.90
4725;DHT22;2376;53.544;10.226;2024-01-30T01:47:58;4.30;99.90
4725;DHT22;2376;53.544;10.226;2024-01-30T01:50:25;4.30;99.90
4725;DHT22;2376;53.544;10.226;2024-01-30T01:52:53;4.20;99.90
4725;DHT22;2376;53.544;10.226;2024-01-30T01:55:21;4.20;99.90
4725;DHT22;2376;53.544;10.226;2024-01-30T01:57:50;4.20;99.90
4725;DHT22;2376;53.544;10.226;2024-01-30T02:00:17;4.20;99.90
4725;DHT22;2376;53.544;10.226;2024-01-30T02:02:46;4.20;99.90
4725;DHT22;2376;53.544;10.226;2024-01-30T02:05:14;4.20;99.90
4725;DHT22;2376;53.544;10.226;2024-01-30T02:07:41;4.20;99.90
4725;DHT22;2376;53.544;10.226;2024-01-30T02:10:08;4.20;99.90
4725;DHT22;2376;53.544;10.226;2024-01-30T02:12:35;4.20;99.90
4725;DHT22;2376;53.544;10.226;2024-01-30T02:15:03;4.20;99.90
4725;DHT22;2376;53.544;10.226;2024-01-30T02:17:30;4.20;99.90
4725;DHT22;2376;53.544;10.226;2024-01-30T02:19:58;4.20;99.90
4725;DHT22;2376;53.544;10.226;2024-01-30T02:22:27;4.20;99.90
4725;DHT22;2376;53.544;10.226;2024-01-30T02:24:54;4.10;99.90
4725;DHT22;2376;53.544;10.226;2024-01-30T02:27:21;4.10;99.90
4725;DHT22;2376;53.544;10.226;2024-01-30T02:29:48;4.10;99.90
4725;DHT22;2376;53.544;10.226;2024-01-30T02:32:14;4.10;99.90
4725;DHT22;2376;53.544;10.226;2024-01-30T02:34:42;4.10;99.90
4725;DHT22;2376;53.544;10.226;2024-01-30T02:37:09;4.10;99.90
4725;DHT22;2376;53.544;10.226;2024-01-30T02:39:37;4.10;99.90
4725;DHT22;2376;53.544;10.226;2024-01-30T02:42:04;4.10;99.90
4725;DHT22;2376;53.544;10.226;2024-01-30T02:44:31;4.10;99.90
4725;DHT22;2376;53.544;10.226;2024-01-30T02:46:57;4.10;99.90
4725;DHT22;2376;53.544;10.226;2024-01-30T02:49:24;4.10;99.90
4725;DHT22;2376;53.544;10.226;2024-01-30T02:51:53;4.10;99.90
4725;DHT22;2376;53.544;10.226;2024-01-30T02:54:20;4.20;99.90
4725;DHT22;2376;53.544;10.226;2024-01-30T02:56:48;4.20;99.90
4725;DHT22;2376;53.544;10.226;2024-01-30T02:59:15;4.20;99.90
4725;DHT22;2376;53.544;10.226;2024-01-30T03:01:43;4.20;99.90
4725;DHT22;2376;53.544;10.226;2024-01-30T03:04:10;4.20;99.90
4725;DHT22;2376;53.544;10.226;2024-01-30T03:06:37;4.20;99.90
4725;DHT22;2376;53.544;10.226;2024-01-30T03:09:03;4.20;99.90
4725;DHT22;2376;53.544;10.226;2024-01-30T03:11:30;4.20;99.90
4725;DHT22;2376;53.544;10.226;2024-01-30T03:13:58;4.20;99.90
4725;DHT22;2376;53.544;10.226;2024-01-30T03:16:25;4.20;99.90
4725;DHT22;2376;53.544;10.226;2024-01-30T03:18:51;4.20;99.90
4725;DHT22;2376;53.544;10.226;2024-01-30T03:21:18;4.20;99.90
4725;DHT22;2376;53.544;10.226;2024-01-30T03:23:45;4.20;99.90
4725;DHT22;2376;53.544;10.226;2024-01-30T03:26:12;4.20;99.90
4725;DHT22;2376;53.544;10.226;2024-01-30T03:28:40;4.20;99.90
4725;DHT22;2376;53.544;10.226;2024-01-30T03:31:08;4.20;99.90
4725;DHT22;2376;53.544;10.226;2024-01-30T03:33:34;4.10;99.90
4725;DHT22;2376;53.544;10.226;2024-01-30T03:36:04;4.10;99.90
4725;DHT22;2376;53.544;10.226;2024-01-30T03:38:30;4.10;99.90
4725;DHT22;2376;53.544;10.226;2024-01-30T03:40:58;4.10;99.90
4725;DHT22;2376;53.544;10.226;2024-01-30T03:43:25;4.20;99.90
4725;DHT22;2376;53.544;10.226;2024-01-30T03:45:51;4.10;99.90
4725;DHT22;2376;53.544;10.226;2024-01-30T03:48:21;4.10;99.90
4725;DHT22;2376;53.544;10.226;2024-01-30T03:50:48;4.10;99.90
4725;DHT22;2376;53.544;10.226;2024-01-30T03:53:14;4.00;99.90
4725;DHT22;2376;53.544;10.226;2024-01-30T03:55:41;4.00;99.90
4725;DHT22;2376;53.544;10.226;2024-01-30T03:58:08;4.00;99.90
4725;DHT22;2376;53.544;10.226;2024-01-30T04:00:35;3.90;99.90
4725;DHT22;2376;53.544;10.226;2024-01-30T04:03:02;4.00;99.90
4725;DHT22;2376;53.544;10.226;2024-01-30T04:05:30;3.90;99.90
4725;DHT22;2376;53.544;10.226;2024-01-30T04:07:56;3.90;99.90
4725;DHT22;2376;53.544;10.226;2024-01-30T04:10:23;3.90;99.90
4725;DHT22;2376;53.544;10.226;2024-01-30T04:12:51;3.90;99.90
4725;DHT22;2376;53.544;10.226;2024-01-30T04:15:19;3.90;99.90
4725;DHT22;2376;53.544;10.226;2024-01-30T04:17:46;3.90;99.90
4725;DHT22;2376;53.544;10.226;2024-01-30T04:20:14;3.90;99.90
4725;DHT22;2376;53.544;10.226;2024-01-30T04:22:43;3.90;99.90
4725;DHT22;2376;53.544;10.226;2024-01-30T04:25:10;3.90;99.90
4725;DHT22;2376;53.544;10.226;2024-01-30T04:27:36;3.90;99.90
4725;DHT22;2376;53.544;10.226;2024-01-30T04:30:04;3.90;99.90
4725;DHT22;2376;53.544;10.226;2024-01-30T04:32:32;3.90;99.90
4725;DHT22;2376;53.544;10.226;2024-01-30T04:34:58;3.90;99.90
4725;DHT22;2376;53.544;10.226;2024-01-30T04:37:25;3.90;99.90
4725;DHT22;2376;53.544;10.226;2024-01-30T04:39:53;3.90;99.90
4725;DHT22;2376;53.544;10.226;2024-01-30T04:42:20;3.90;99.90
4725;DHT22;2376;53.544;10.226;2024-01-30T04:44:46;3.90;99.90
4725;DHT22;2376;53.544;10.226;2024-01-30T04:47:13;3.90;99.90
4725;DHT22;2376;53.544;10.226;2024-01-30T04:49:40;3.90;99.90
4725;DHT22;2376;53.544;10.226;2024-01-30T04:52:06;4.00;99.90
4725;DHT22;2376;53.544;10.226;2024-01-30T04:54:33;4.00;99.90
4725;DHT22;2376;53.544;10.226;2024-01-30T04:57:02;4.00;99.90
4725;DHT22;2376;53.544;10.226;2024-01-30T04:59:28;4.00;99.90
4725;DHT22;2376;53.544;10.226;2024-01-30T05:01:55;4.00;99.90
4725;DHT22;2376;53.544;10.226;2024-01-30T05:04:22;4.00;99.90
4725;DHT22;2376;53.544;10.226;2024-01-30T05:06:48;4.00;99.90
4725;DHT22;2376;53.544;10.226;2024-01-30T05:09:15;4.00;99.90
4725;DHT22;2376;53.544;10.226;2024-01-30T05:11:42;4.00;99.90
4725;DHT22;2376;53.544;10.226;2024-01-30T05:14:10;4.00;99.90
4725;DHT22;2376;53.544;10.226;2024-01-30T05:16:37;4.00;99.90
4725;DHT22;2376;53.544;10.226;2024-01-30T05:19:04;4.00;99.90
4725;DHT22;2376;53.544;10.226;2024-01-30T05:21:31;4.00;99.90
4725;DHT22;2376;53.544;10.226;2024-01-30T05:23:57;4.00;99.90
4725;DHT22;2376;53.544;10.226;2024-01-30T05:26:24;4.00;99.90
4725;DHT22;2376;53.544;10.226;2024-01-30T05:28:51;3.90;99.90
4725;DHT22;2376;53.544;10.226;2024-01-30T05:31:19;3.90;99.90
4725;DHT22;2376;53.544;10.226;2024-01-30T05:33:46;3.90;99.90
4725;DHT22;2376;53.544;10.226;2024-01-30T05:36:13;4.00;99.90
4725;DHT22;2376;53.544;10.226;2024-01-30T05:38:40;4.00;99.90
4725;DHT22;2376;53.544;10.226;2024-01-30T05:41:06;4.00;99.90
4725;DHT22;2376;53.544;10.226;2024-01-30T05:43:34;4.00;99.90
4725;DHT22;2376;53.544;10.226;2024-01-30T05:46:00;4.00;99.90
4725;DHT22;2376;53.544;10.226;2024-01-30T05:48:28;4.00;99.90
4725;DHT22;2376;53.544;10.226;2024-01-30T05:50:56;4.00;99.90
4725;DHT22;2376;53.544;10.226;2024-01-30T05:53:23;4.00;99.90
4725;DHT22;2376;53.544;10.226;2024-01-30T05:55:49;4.00;99.90
4725;DHT22;2376;53.544;10.226;2024-01-30T05:58:16;4.00;99.90
4725;DHT22;2376;53.544;10.226;2024-01-30T06:00:43;4.00;99.90
4725;DHT22;2376;53.544;10.226;2024-01-30T06:03:09;4.00;99.90
4725;DHT22;2376;53.544;10.226;2024-01-30T06:05:37;4.00;99.90
4725;DHT22;2376;53.544;10.226;2024-01-30T06:08:05;4.00;99.90
4725;DHT22;2376;53.544;10.226;2024-01-30T06:10:35;4.00;99.90
4725;DHT22;2376;53.544;10.226;2024-01-30T06:13:02;4.00;99.90
4725;DHT22;2376;53.544;10.226;2024-01-30T06:15:28;4.00;99.90
4725;DHT22;2376;53.544;10.226;2024-01-30T06:17:58;4.00;99.90
4725;DHT22;2376;53.544;10.226;2024-01-30T06:20:24;4.00;99.90
4725;DHT22;2376;53.544;10.226;2024-01-30T06:22:52;4.00;99.90
4725;DHT22;2376;53.544;10.226;2024-01-30T06:25:19;4.00;99.90
4725;DHT22;2376;53.544;10.226;2024-01-30T06:27:46;4.00;99.90
4725;DHT22;2376;53.544;10.226;2024-01-30T06:30:13;4.00;99.90
4725;DHT22;2376;53.544;10.226;2024-01-30T06:32:40;4.00;99.90
4725;DHT22;2376;53.544;10.226;2024-01-30T06:35:08;4.10;99.90
4725;DHT22;2376;53.544;10.226;2024-01-30T06:37:35;4.10;99.90
4725;DHT22;2376;53.544;10.226;2024-01-30T06:40:05;4.10;99.90
4725;DHT22;2376;53.544;10.226;2024-01-30T06:42:31;4.20;99.90
4725;DHT22;2376;53.544;10.226;2024-01-30T06:44:58;4.10;99.90
4725;DHT22;2376;53.544;10.226;2024-01-30T06:47:25;4.10;99.90
4725;DHT22;2376;53.544;10.226;2024-01-30T06:49:51;4.10;99.90
4725;DHT22;2376;53.544;10.226;2024-01-30T06:52:18;4.20;99.90
4725;DHT22;2376;53.544;10.226;2024-01-30T06:54:45;4.20;99.90
4725;DHT22;2376;53.544;10.226;2024-01-30T06:57:13;4.20;99.90
4725;DHT22;2376;53.544;10.226;2024-01-30T06:59:39;4.20;99.90
4725;DHT22;2376;53.544;10.226;2024-01-30T07:02:08;4.30;99.90
4725;DHT22;2376;53.544;10.226;2024-01-30T07:04:35;4.30;99.90
4725;DHT22;2376;53.544;10.226;2024-01-30T07:07:03;4.30;99.90
4725;DHT22;2376;53.544;10.226;2024-01-30T07:09:31;4.30;99.90
4725;DHT22;2376;53.544;10.226;2024-01-30T07:11:57;4.40;99.90
4725;DHT22;2376;53.544;10.226;2024-01-30T07:14:25;4.40;99.90
4725;DHT22;2376;53.544;10.226;2024-01-30T07:16:52;4.40;99.90
4725;DHT22;2376;53.544;10.226;2024-01-30T07:19:19;4.40;99.90
4725;DHT22;2376;53.544;10.226;2024-01-30T07:21:45;4.40;99.90
4725;DHT22;2376;53.544;10.226;2024-01-30T07:24:12;4.40;99.90
4725;DHT22;2376;53.544;10.226;2024-01-30T07:26:39;4.40;99.90
4725;DHT22;2376;53.544;10.226;2024-01-30T07:29:06;4.40;99.90
4725;DHT22;2376;53.544;10.226;2024-01-30T07:31:34;4.40;99.90
4725;DHT22;2376;53.544;10.226;2024-01-30T07:34:01;4.40;99.90
4725;DHT22;2376;53.544;10.226;2024-01-30T07:36:28;4.40;99.90
4725;DHT22;2376;53.544;10.226;2024-01-30T07:38:54;4.40;99.90
4725;DHT22;2376;53.544;10.226;2024-01-30T07:41:21;4.40;99.90
4725;DHT22;2376;53.544;10.226;2024-01-30T07:43:48;4.50;99.90
4725;DHT22;2376;53.544;10.226;2024-01-30T07:46:15;4.50;99.90
4725;DHT22;2376;53.544;10.226;2024-01-30T07:48:43;4.50;99.90
4725;DHT22;2376;53.544;10.226;2024-01-30T07:51:09;4.50;99.90
4725;DHT22;2376;53.544;10.226;2024-01-30T07:53:36;4.60;99.90
4725;DHT22;2376;53.544;10.226;2024-01-30T07:56:03;4.60;99.90
4725;DHT22;2376;53.544;10.226;2024-01-30T07:58:30;4.60;99.90
4725;DHT22;2376;53.544;10.226;2024-01-30T08:00:56;4.60;99.90
4725;DHT22;2376;53.544;10.226;2024-01-30T08:03:23;4.70;99.90
4725;DHT22;2376;53.544;10.226;2024-01-30T08:05:52;4.70;99.90
4725;DHT22;2376;53.544;10.226;2024-01-30T08:08:18;4.70;99.90
4725;DHT22;2376;53.544;10.226;2024-01-30T08:10:45;4.70;99.90
4725;DHT22;2376;53.544;10.226;2024-01-30T08:13:12;4.80;99.90
4725;DHT22;2376;53.544;10.226;2024-01-30T08:15:38;4.90;99.90
4725;DHT22;2376;53.544;10.226;2024-01-30T08:18:05;4.80;99.90
4725;DHT22;2376;53.544;10.226;2024-01-30T08:20:32;4.90;99.90
4725;DHT22;2376;53.544;10.226;2024-01-30T08:23:00;4.90;99.90
4725;DHT22;2376;53.544;10.226;2024-01-30T08:25:27;4.90;99.90
4725;DHT22;2376;53.544;10.226;2024-01-30T08:27:53;5.00;99.90
4725;DHT22;2376;53.544;10.226;2024-01-30T08:30:20;5.00;99.90
4725;DHT22;2376;53.544;10.226;2024-01-30T08:32:47;5.00;99.90
4725;DHT22;2376;53.544;10.226;2024-01-30T08:35:14;5.10;99.90
4725;DHT22;2376;53.544;10.226;2024-01-30T08:37:41;5.10;99.90
4725;DHT22;2376;53.544;10.226;2024-01-30T08:40:10;5.10;99.90
4725;DHT22;2376;53.544;10.226;2024-01-30T08:42:36;5.20;99.90
4725;DHT22;2376;53.544;10.226;2024-01-30T08:45:04;5.20;99.90
4725;DHT22;2376;53.544;10.226;2024-01-30T08:47:32;5.20;99.90
4725;DHT22;2376;53.544;10.226;2024-01-30T08:49:58;5.30;99.90
4725;DHT22;2376;53.544;10.226;2024-01-30T08:52:25;5.30;99.90
4725;DHT22;2376;53.544;10.226;2024-01-30T08:54:52;5.30;99.90
4725;DHT22;2376;53.544;10.226;2024-01-30T08:57:20;5.40;99.90
4725;DHT22;2376;53.544;10.226;2024-01-30T08:59:46;5.40;99.90
4725;DHT22;2376;53.544;10.226;2024-01-30T09:02:13;5.50;99.90
4725;DHT22;2376;53.544;10.226;2024-01-30T09:04:41;5.50;99.90
4725;DHT22;2376;53.544;10.226;2024-01-30T09:07:09;5.60;99.90
4725;DHT22;2376;53.544;10.226;2024-01-30T09:09:37;5.60;99.90
4725;DHT22;2376;53.544;10.226;2024-01-30T09:12:05;5.60;99.90
4725;DHT22;2376;53.544;10.226;2024-01-30T09:14:36;5.70;99.90
4725;DHT22;2376;53.544;10.226;2024-01-30T09:17:03;5.80;99.90
4725;DHT22;2376;53.544;10.226;2024-01-30T09:19:30;5.90;99.90
4725;DHT22;2376;53.544;10.226;2024-01-30T09:21:56;5.90;99.90
4725;DHT22;2376;53.544;10.226;2024-01-30T09:24:23;6.00;99.90
4725;DHT22;2376;53.544;10.226;2024-01-30T09:26:50;6.00;99.90
4725;DHT22;2376;53.544;10.226;2024-01-30T09:29:16;6.00;99.90
4725;DHT22;2376;53.544;10.226;2024-01-30T09:31:45;6.10;99.90
4725;DHT22;2376;53.544;10.226;2024-01-30T09:34:12;6.20;99.90
4725;DHT22;2376;53.544;10.226;2024-01-30T09:36:39;6.30;99.90
4725;DHT22;2376;53.544;10.226;2024-01-30T09:39:05;6.30;99.90
4725;DHT22;2376;53.544;10.226;2024-01-30T09:41:33;6.40;99.90
4725;DHT22;2376;53.544;10.226;2024-01-30T09:44:04;6.50;99.90
4725;DHT22;2376;53.544;10.226;2024-01-30T09:46:33;6.50;99.90
4725;DHT22;2376;53.544;10.226;2024-01-30T09:49:02;6.50;99.90
4725;DHT22;2376;53.544;10.226;2024-01-30T09:51:30;6.60;99.90
4725;DHT22;2376;53.544;10.226;2024-01-30T09:53:57;6.60;99.90
4725;DHT22;2376;53.544;10.226;2024-01-30T09:56:24;6.60;99.90
4725;DHT22;2376;53.544;10.226;2024-01-30T09:58:50;6.70;99.90
4725;DHT22;2376;53.544;10.226;2024-01-30T10:01:18;6.70;99.90
4725;DHT22;2376;53.544;10.226;2024-01-30T10:03:45;6.70;99.90
4725;DHT22;2376;53.544;10.226;2024-01-30T10:06:14;6.80;99.90
4725;DHT22;2376;53.544;10.226;2024-01-30T10:08:42;6.90;99.90
4725;DHT22;2376;53.544;10.226;2024-01-30T10:11:09;6.90;99.90
4725;DHT22;2376;53.544;10.226;2024-01-30T10:13:35;7.00;99.90
4725;DHT22;2376;53.544;10.226;2024-01-30T10:16:02;7.00;99.90
4725;DHT22;2376;53.544;10.226;2024-01-30T10:18:31;7.10;99.90
4725;DHT22;2376;53.544;10.226;2024-01-30T10:20:59;7.10;99.90
4725;DHT22;2376;53.544;10.226;2024-01-30T10:23:27;7.10;99.90
4725;DHT22;2376;53.544;10.226;2024-01-30T10:25:54;7.20;99.90
4725;DHT22;2376;53.544;10.226;2024-01-30T10:28:20;7.30;99.90
4725;DHT22;2376;53.544;10.226;2024-01-30T10:30:57;7.30;99.90
4725;DHT22;2376;53.544;10.226;2024-01-30T10:33:26;7.30;99.90
4725;DHT22;2376;53.544;10.226;2024-01-30T10:39:14;7.50;99.90
4725;DHT22;2376;53.544;10.226;2024-01-30T10:41:44;7.60;99.90
4725;DHT22;2376;53.544;10.226;2024-01-30T10:44:11;7.60;99.90
4725;DHT22;2376;53.544;10.226;2024-01-30T10:46:46;7.60;99.90
4725;DHT22;2376;53.544;10.226;2024-01-30T10:49:41;7.70;99.90
4725;DHT22;2376;53.544;10.226;2024-01-30T10:52:09;7.70;99.90
4725;DHT22;2376;53.544;10.226;2024-01-30T10:54:40;7.70;99.90
4725;DHT22;2376;53.544;10.226;2024-01-30T10:57:07;7.80;99.90
4725;DHT22;2376;53.544;10.226;2024-01-30T10:59:36;7.90;99.90
4725;DHT22;2376;53.544;10.226;2024-01-30T11:02:03;7.90;99.90
4725;DHT22;2376;53.544;10.226;2024-01-30T11:04:36;8.00;99.90
4725;DHT22;2376;53.544;10.226;2024-01-30T11:07:14;8.00;99.90
4725;DHT22;2376;53.544;10.226;2024-01-30T11:09:59;8.10;99.90
4725;DHT22;2376;53.544;10.226;2024-01-30T11:12:27;8.10;99.90
4725;DHT22;2376;53.544;10.226;2024-01-30T11:15:12;8.10;99.90
4725;DHT22;2376;53.544;10.226;2024-01-30T11:20:10;8.10;99.90
4725;DHT22;2376;53.544;10.226;2024-01-30T11:22:41;8.30;99.90
4725;DHT22;2376;53.544;10.226;2024-01-30T11:30:21;8.30;99.90
4725;DHT22;2376;53.544;10.226;2024-01-30T11:32:58;8.50;99.90
4725;DHT22;2376;53.544;10.226;2024-01-30T11:35:25;8.50;99.90
4725;DHT22;2376;53.544;10.226;2024-01-30T11:40:21;8.50;99.90
4725;DHT22;2376;53.544;10.226;2024-01-30T11:42:48;8.50;99.90
4725;DHT22;2376;53.544;10.226;2024-01-30T11:50:09;8.60;99.90
4725;DHT22;2376;53.544;10.226;2024-01-30T11:52:36;8.70;99.90
4725;DHT22;2376;53.544;10.226;2024-01-30T11:55:04;8.70;99.90
4725;DHT22;2376;53.544;10.226;2024-01-30T11:57:32;8.70;99.90
4725;DHT22;2376;53.544;10.226;2024-01-30T12:46:58;8.70;99.90
4725;DHT22;2376;53.544;10.226;2024-01-30T12:49:26;9.20;99.90
4725;DHT22;2376;53.544;10.226;2024-01-30T12:51:53;9.20;99.90
4725;DHT22;2376;53.544;10.226;2024-01-30T12:54:20;9.20;99.90
4725;DHT22;2376;53.544;10.226;2024-01-30T12:56:47;9.20;99.90
4725;DHT22;2376;53.544;10.226;2024-01-30T12:59:14;9.20;99.90
4725;DHT22;2376;53.544;10.226;2024-01-30T13:01:41;9.20;99.90
4725;DHT22;2376;53.544;10.226;2024-01-30T13:04:07;9.30;99.90
4725;DHT22;2376;53.544;10.226;2024-01-30T13:06:35;9.30;99.90
4725;DHT22;2376;53.544;10.226;2024-01-30T13:09:02;9.30;99.90
4725;DHT22;2376;53.544;10.226;2024-01-30T13:11:29;9.30;99.90
4725;DHT22;2376;53.544;10.226;2024-01-30T13:13:55;9.30;99.90
4725;DHT22;2376;53.544;10.226;2024-01-30T13:16:22;9.40;99.90
4725;DHT22;2376;53.544;10.226;2024-01-30T13:18:49;9.40;99.90
4725;DHT22;2376;53.544;10.226;2024-01-30T13:21:15;9.30;99.90
4725;DHT22;2376;53.544;10.226;2024-01-30T13:23:44;9.40;99.90
4725;DHT22;2376;53.544;10.226;2024-01-30T13:26:11;9.40;99.90
4725;DHT22;2376;53.544;10.226;2024-01-30T13:28:37;9.40;99.90
4725;DHT22;2376;53.544;10.226;2024-01-30T13:31:04;9.40;99.90
4725;DHT22;2376;53.544;10.226;2024-01-30T13:33:32;9.40;99.90
4725;DHT22;2376;53.544;10.226;2024-01-30T13:35:58;9.40;99.90
4725;DHT22;2376;53.544;10.226;2024-01-30T13:38:25;9.40;99.90
4725;DHT22;2376;53.544;10.226;2024-01-30T13:40:53;9.40;99.90
4725;DHT22;2376;53.544;10.226;2024-01-30T13:43:20;9.40;99.90
4725;DHT22;2376;53.544;10.226;2024-01-30T13:45:46;9.40;99.90
4725;DHT22;2376;53.544;10.226;2024-01-30T13:48:13;9.40;99.90
4725;DHT22;2376;53.544;10.226;2024-01-30T13:50:40;9.40;99.90
4725;DHT22;2376;53.544;10.226;2024-01-30T13:53:14;9.40;99.90
4725;DHT22;2376;53.544;10.226;2024-01-30T13:55:44;9.50;99.90
4725;DHT22;2376;53.544;10.226;2024-01-30T13:58:22;9.40;99.90
4725;DHT22;2376;53.544;10.226;2024-01-30T14:00:51;9.50;99.90
4725;DHT22;2376;53.544;10.226;2024-01-30T14:13:12;9.50;99.90
4725;DHT22;2376;53.544;10.226;2024-01-30T15:47:34;10.10;99.90
4725;DHT22;2376;53.544;10.226;2024-01-30T15:50:25;10.10;99.90
4725;DHT22;2376;53.544;10.226;2024-01-30T15:53:13;10.10;99.90
4725;DHT22;2376;53.544;10.226;2024-01-30T17:02:14;10.10;99.90
